createdAt,value
2019-02-28T00:00:03.178Z,76.61
2019-02-28T00:02:36.258Z,76.61
2019-02-28T00:05:07.666Z,76.51
2019-02-28T00:07:38.914Z,76.49
2019-02-28T00:10:10.464Z,76.70
2019-02-28T00:12:41.861Z,76.46
2019-02-28T00:15:13.052Z,76.46
2019-02-28T00:17:44.289Z,76.53
2019-02-28T00:20:15.552Z,76.61
2019-02-28T00:22:49.277Z,76.23
2019-02-28T00:25:19.967Z,75.94
2019-02-28T00:27:52.638Z,76.03
2019-02-28T00:30:24.109Z,76.07
2019-02-28T00:32:56.303Z,75.83
2019-02-28T00:35:28.690Z,75.78
2019-02-28T00:38:00.026Z,76.20
2019-02-28T00:40:31.402Z,76.43
2019-02-28T00:43:02.658Z,76.21
2019-02-28T00:45:36.493Z,76.21
2019-02-28T00:48:06.195Z,76.32
2019-02-28T00:50:38.800Z,76.51
2019-02-28T00:53:10.167Z,76.46
2019-02-28T00:55:41.683Z,77.17
2019-02-28T00:58:13.042Z,76.94
2019-02-28T01:00:44.368Z,77.22
2019-02-28T01:03:15.809Z,77.20
2019-02-28T01:05:47.149Z,77.23
2019-02-28T01:08:19.191Z,77.23
2019-02-28T01:10:52.001Z,77.32
2019-02-28T01:13:27.311Z,77.30
2019-02-28T01:15:56.850Z,77.05
2019-02-28T01:18:28.224Z,77.15
2019-02-28T01:20:59.581Z,77.03
2019-02-28T01:23:30.976Z,77.23
2019-02-28T01:26:02.386Z,76.80
2019-02-28T01:28:34.148Z,77.27
2019-02-28T01:31:05.357Z,77.27
2019-02-28T01:33:36.612Z,76.45
2019-02-28T01:36:07.921Z,77.08
2019-02-28T01:38:39.193Z,77.55
2019-02-28T01:41:11.200Z,77.47
2019-02-28T01:43:42.674Z,77.62
2019-02-28T01:46:14.467Z,77.12
2019-02-28T01:48:46.192Z,77.20
2019-02-28T01:51:17.572Z,77.23
2019-02-28T01:53:50.370Z,77.52
2019-02-28T01:56:21.229Z,77.24
2019-02-28T01:58:52.483Z,77.15
2019-02-28T02:01:23.908Z,76.94
2019-02-28T02:03:55.237Z,76.97
2019-02-28T02:06:26.653Z,76.92
2019-02-28T02:08:58.995Z,76.75
2019-02-28T02:11:30.335Z,76.66
2019-02-28T02:14:01.721Z,76.45
2019-02-28T02:16:33.324Z,76.52
2019-02-28T02:19:04.704Z,76.52
2019-02-28T02:21:36.109Z,76.49
2019-02-28T02:24:07.467Z,75.94
2019-02-28T02:26:38.789Z,75.91
2019-02-28T02:29:10.029Z,75.92
2019-02-28T02:31:43.601Z,75.54
2019-02-28T02:34:13.763Z,75.42
2019-02-28T02:36:45.302Z,75.27
2019-02-28T02:39:17.814Z,75.27
2019-02-28T02:41:49.346Z,75.16
2019-02-28T02:44:20.600Z,75.06
2019-02-28T02:46:55.524Z,74.34
2019-02-28T02:49:24.927Z,74.35
2019-02-28T02:51:56.638Z,74.03
2019-02-28T02:54:28.031Z,74.15
2019-02-28T02:57:00.575Z,74.10
2019-02-28T02:59:37.567Z,74.00
2019-02-28T03:02:04.275Z,73.86
2019-02-28T03:04:35.625Z,74.23
2019-02-28T03:07:06.877Z,74.23
2019-02-28T03:09:43.426Z,74.33
2019-02-28T03:12:10.487Z,74.62
2019-02-28T03:14:41.706Z,74.71
2019-02-28T03:17:13.254Z,74.71
2019-02-28T03:19:44.695Z,74.85
2019-02-28T03:22:15.923Z,74.16
2019-02-28T03:24:50.635Z,74.92
2019-02-28T03:27:20.114Z,74.74
2019-02-28T03:29:51.632Z,74.28
2019-02-28T03:32:22.909Z,74.74
2019-02-28T03:34:57.961Z,74.68
2019-02-28T03:37:32.836Z,74.91
2019-02-28T03:40:04.516Z,74.48
2019-02-28T03:42:32.342Z,75.02
2019-02-28T03:45:04.541Z,74.36
2019-02-28T03:47:35.879Z,74.36
2019-02-28T03:50:08.788Z,74.62
2019-02-28T03:52:44.053Z,75.28
2019-02-28T03:55:14.459Z,74.60
2019-02-28T03:57:45.882Z,74.72
2019-02-28T04:00:21.461Z,75.21
2019-02-28T04:02:57.368Z,74.68
2019-02-28T04:05:28.022Z,75.00
2019-02-28T04:07:58.390Z,74.64
2019-02-28T04:10:29.628Z,75.19
2019-02-28T04:13:01.258Z,74.34
2019-02-28T04:15:32.513Z,74.25
2019-02-28T04:18:07.505Z,75.00
2019-02-28T04:20:37.632Z,75.03
2019-02-28T04:23:08.932Z,74.86
2019-02-28T04:25:40.179Z,74.66
2019-02-28T04:28:17.186Z,74.13
2019-02-28T04:30:44.123Z,75.01
2019-02-28T04:33:15.780Z,74.90
2019-02-28T04:35:47.161Z,74.47
2019-02-28T04:38:20.896Z,74.07
2019-02-28T04:40:54.039Z,74.54
2019-02-28T04:43:25.371Z,74.47
2019-02-28T04:45:58.443Z,75.24
2019-02-28T04:48:29.777Z,74.81
2019-02-28T04:51:02.344Z,74.42
2019-02-28T04:53:34.265Z,73.74
2019-02-28T04:56:11.034Z,74.51
2019-02-28T04:58:38.595Z,74.16
2019-02-28T05:01:12.287Z,74.16
2019-02-28T05:03:42.969Z,74.14
2019-02-28T05:06:14.325Z,74.35
2019-02-28T05:08:45.622Z,74.46
2019-02-28T05:11:16.911Z,73.11
2019-02-28T05:13:48.854Z,74.40
2019-02-28T05:16:21.151Z,74.00
2019-02-28T05:18:52.442Z,74.08
2019-02-28T05:21:23.837Z,73.39
2019-02-28T05:23:55.207Z,74.08
2019-02-28T05:26:27.034Z,73.70
2019-02-28T05:28:58.372Z,73.33
2019-02-28T05:31:29.695Z,72.54
2019-02-28T05:34:01.028Z,73.46
2019-02-28T05:36:37.205Z,72.99
2019-02-28T05:39:05.367Z,73.36
2019-02-28T05:41:36.562Z,72.28
2019-02-28T05:44:07.970Z,72.64
2019-02-28T05:46:39.214Z,71.97
2019-02-28T05:49:10.591Z,71.57
2019-02-28T05:51:41.930Z,71.28
2019-02-28T05:54:16.925Z,71.72
2019-02-28T05:56:46.351Z,71.39
2019-02-28T05:59:17.713Z,71.07
2019-02-28T06:01:49.019Z,70.92
2019-02-28T06:04:20.671Z,70.92
2019-02-28T06:06:54.711Z,69.72
2019-02-28T06:09:25.688Z,69.88
2019-02-28T06:11:57.073Z,69.96
2019-02-28T06:14:28.421Z,70.32
2019-02-28T06:16:59.709Z,68.90
2019-02-28T06:19:31.082Z,69.48
2019-02-28T06:22:02.376Z,69.86
2019-02-28T06:24:33.607Z,69.96
2019-02-28T06:27:06.772Z,70.15
2019-02-28T06:29:38.418Z,69.96
2019-02-28T06:32:09.860Z,69.62
2019-02-28T06:34:42.287Z,69.55
2019-02-28T06:37:15.642Z,68.97
2019-02-28T06:39:46.962Z,68.64
2019-02-28T06:42:18.386Z,69.35
2019-02-28T06:44:49.722Z,71.26
2019-02-28T06:47:20.992Z,69.84
2019-02-28T06:49:52.416Z,69.33
2019-02-28T06:52:25.263Z,69.06
2019-02-28T06:54:56.943Z,70.18
2019-02-28T06:57:28.259Z,69.47
2019-02-28T06:59:59.648Z,68.47
2019-02-28T07:02:31.434Z,69.02
2019-02-28T07:05:03.502Z,68.58
2019-02-28T07:07:34.826Z,66.93
2019-02-28T07:10:14.440Z,66.58
2019-02-28T07:12:47.218Z,67.20
2019-02-28T07:15:23.782Z,66.54
2019-02-28T07:17:50.891Z,67.08
2019-02-28T07:20:22.158Z,65.81
2019-02-28T07:22:55.596Z,64.50
2019-02-28T07:25:26.846Z,64.96
2019-02-28T07:28:01.509Z,63.90
2019-02-28T07:30:41.095Z,63.63
2019-02-28T07:33:12.437Z,64.15
2019-02-28T07:35:43.857Z,63.47
2019-02-28T07:38:15.299Z,62.70
2019-02-28T07:40:49.475Z,62.14
2019-02-28T07:43:19.035Z,61.10
2019-02-28T07:45:52.297Z,60.23
2019-02-28T07:48:28.591Z,60.69
2019-02-28T07:50:59.274Z,60.97
2019-02-28T07:53:31.858Z,59.57
2019-02-28T07:56:07.089Z,58.15
2019-02-28T07:58:37.823Z,56.60
2019-02-28T08:01:09.421Z,53.21
2019-02-28T08:03:43.426Z,52.53
2019-02-28T08:06:13.455Z,52.93
2019-02-28T08:08:44.755Z,55.06
2019-02-28T08:11:16.053Z,58.45
2019-02-28T08:13:47.500Z,60.50
2019-02-28T08:16:18.956Z,59.26
2019-02-28T08:18:51.265Z,57.74
2019-02-28T08:21:23.494Z,58.05
2019-02-28T08:23:57.507Z,61.10
2019-02-28T08:26:31.198Z,59.89
2019-02-28T08:29:03.612Z,59.43
2019-02-28T08:31:35.218Z,59.38
2019-02-28T08:34:06.822Z,59.19
2019-02-28T08:36:38.217Z,58.69
2019-02-28T08:39:12.053Z,58.96
2019-02-28T08:41:43.796Z,59.56
2019-02-28T08:44:15.337Z,58.61
2019-02-28T08:46:48.012Z,57.86
2019-02-28T08:49:19.261Z,58.06
2019-02-28T08:51:50.606Z,57.97
2019-02-28T08:54:26.249Z,56.91
2019-02-28T08:56:58.231Z,57.32
2019-02-28T08:59:29.080Z,57.34
2019-02-28T09:02:00.538Z,59.92
2019-02-28T09:04:40.792Z,58.73
2019-02-28T09:07:05.122Z,60.66
2019-02-28T09:09:36.396Z,59.29
2019-02-28T09:12:09.584Z,57.72
2019-02-28T09:14:40.984Z,58.68
2019-02-28T09:17:12.347Z,58.33
2019-02-28T09:19:43.854Z,57.04
2019-02-28T09:22:15.244Z,56.66
2019-02-28T09:24:47.411Z,56.88
2019-02-28T09:27:18.906Z,55.64
2019-02-28T09:29:54.511Z,54.82
2019-02-28T09:32:25.636Z,55.88
2019-02-28T09:34:57.136Z,55.40
2019-02-28T09:37:30.571Z,56.37
2019-02-28T09:40:02.148Z,55.73
2019-02-28T09:42:35.430Z,58.02
2019-02-28T09:45:15.692Z,57.43
2019-02-28T09:47:48.228Z,56.25
2019-02-28T09:50:22.563Z,56.28
2019-02-28T09:52:56.972Z,55.37
2019-02-28T09:55:34.277Z,58.15
2019-02-28T09:58:07.211Z,56.68
2019-02-28T10:00:38.645Z,56.48
2019-02-28T10:03:12.015Z,55.31
2019-02-28T10:05:43.474Z,54.44
2019-02-28T10:08:17.651Z,53.54
2019-02-28T10:10:52.397Z,55.56
2019-02-28T10:13:31.044Z,55.66
2019-02-28T10:16:03.945Z,55.43
2019-02-28T10:18:38.720Z,57.09
2019-02-28T10:21:10.228Z,57.29
2019-02-28T10:23:42.882Z,55.87
2019-02-28T10:26:17.209Z,55.35
2019-02-28T10:28:48.570Z,55.16
2019-02-28T10:31:22.882Z,57.52
2019-02-28T10:33:53.765Z,56.63
2019-02-28T10:36:25.147Z,57.06
2019-02-28T10:38:56.824Z,56.07
2019-02-28T10:41:36.193Z,57.03
2019-02-28T10:44:09.668Z,58.42
2019-02-28T10:46:41.083Z,57.47
2019-02-28T10:49:14.077Z,58.74
2019-02-28T10:51:49.607Z,58.71
2019-02-28T10:54:18.694Z,58.93
2019-02-28T10:56:51.616Z,59.19
2019-02-28T10:59:24.433Z,59.20
2019-02-28T11:02:00.205Z,58.92
2019-02-28T11:04:35.864Z,58.98
2019-02-28T11:07:07.378Z,59.52
2019-02-28T11:09:41.502Z,59.10
2019-02-28T11:12:19.634Z,59.76
2019-02-28T11:14:47.341Z,59.07
2019-02-28T11:17:18.722Z,59.41
2019-02-28T11:19:52.046Z,59.58
2019-02-28T11:22:28.106Z,60.66
2019-02-28T11:25:00.956Z,59.09
2019-02-28T11:27:32.979Z,58.69
2019-02-28T11:30:10.835Z,59.74
2019-02-28T11:32:42.457Z,62.02
2019-02-28T11:35:13.795Z,60.97
2019-02-28T11:37:46.182Z,60.88
2019-02-28T11:40:22.693Z,61.15
2019-02-28T11:42:54.545Z,60.91
2019-02-28T11:45:28.924Z,62.85
2019-02-28T11:48:02.612Z,61.63
2019-02-28T11:50:34.399Z,61.99
2019-02-28T11:53:06.129Z,61.95
2019-02-28T11:55:37.474Z,61.36
2019-02-28T11:58:09.137Z,60.30
2019-02-28T12:00:43.955Z,61.63
2019-02-28T12:03:15.531Z,61.85
2019-02-28T12:05:50.034Z,61.52
2019-02-28T12:08:22.248Z,60.44
2019-02-28T12:10:58.316Z,61.60
2019-02-28T12:13:27.900Z,60.69
2019-02-28T12:15:59.744Z,62.48
2019-02-28T12:18:31.472Z,62.74
2019-02-28T12:21:04.928Z,63.58
2019-02-28T12:23:36.302Z,62.59
2019-02-28T12:26:07.614Z,62.26
2019-02-28T12:28:39.237Z,63.13
2019-02-28T12:31:11.629Z,64.09
2019-02-28T12:33:45.722Z,64.44
2019-02-28T12:36:17.591Z,63.87
2019-02-28T12:38:49.373Z,64.34
2019-02-28T12:41:21.630Z,63.74
2019-02-28T12:43:53.280Z,63.27
2019-02-28T12:46:32.762Z,64.97
2019-02-28T12:49:06.187Z,64.98
2019-02-28T12:51:39.712Z,63.87
2019-02-28T12:54:11.277Z,64.11
2019-02-28T12:56:45.193Z,64.16
2019-02-28T12:59:15.801Z,64.25
2019-02-28T13:01:49.263Z,65.07
2019-02-28T13:04:20.691Z,65.37
2019-02-28T13:06:55.576Z,65.35
2019-02-28T13:09:25.508Z,66.02
2019-02-28T13:11:57.288Z,65.84
2019-02-28T13:14:28.825Z,66.04
2019-02-28T13:17:00.614Z,65.34
2019-02-28T13:19:32.430Z,65.34
2019-02-28T13:22:04.390Z,64.88
2019-02-28T13:24:36.049Z,65.26
2019-02-28T13:27:09.814Z,64.97
2019-02-28T13:29:41.420Z,65.21
2019-02-28T13:32:13.371Z,65.86
2019-02-28T13:34:45.258Z,66.24
2019-02-28T13:37:16.734Z,65.61
2019-02-28T13:39:48.048Z,66.44
2019-02-28T13:42:19.207Z,66.82
2019-02-28T13:44:50.946Z,67.09
2019-02-28T13:47:22.802Z,67.46
2019-02-28T13:49:56.993Z,66.95
2019-02-28T13:52:28.565Z,66.93
2019-02-28T13:55:00.442Z,67.98
2019-02-28T13:57:32.337Z,67.02
2019-02-28T14:00:07.841Z,67.06
2019-02-28T14:02:39.109Z,67.15
2019-02-28T14:05:12.426Z,67.72
2019-02-28T14:07:44.038Z,67.41
2019-02-28T14:10:21.509Z,67.23
2019-02-28T14:12:57.029Z,68.33
2019-02-28T14:15:48.100Z,67.79
2019-02-28T14:18:18.762Z,68.08
2019-02-28T14:20:50.280Z,68.50
2019-02-28T14:23:22.531Z,68.43
2019-02-28T14:25:53.885Z,68.37
2019-02-28T14:28:25.744Z,69.02
2019-02-28T14:30:57.790Z,68.74
2019-02-28T14:33:30.622Z,69.29
2019-02-28T14:36:03.325Z,69.73
2019-02-28T14:38:35.032Z,69.76
2019-02-28T14:41:07.829Z,69.86
2019-02-28T14:43:40.096Z,69.87
2019-02-28T14:46:11.744Z,69.38
2019-02-28T14:48:43.705Z,69.84
2019-02-28T14:51:15.054Z,70.05
2019-02-28T14:53:49.126Z,69.90
2019-02-28T14:56:19.656Z,69.64
2019-02-28T14:58:54.530Z,69.94
2019-02-28T15:01:24.643Z,70.31
2019-02-28T15:03:56.504Z,70.52
2019-02-28T15:06:29.523Z,70.62
2019-02-28T15:09:02.789Z,71.30
2019-02-28T15:11:37.263Z,70.75
2019-02-28T15:14:09.793Z,71.29
2019-02-28T15:16:41.343Z,71.34
2019-02-28T15:19:13.000Z,72.33
2019-02-28T15:21:44.581Z,72.07
2019-02-28T15:24:18.617Z,72.13
2019-02-28T15:26:50.322Z,72.06
2019-02-28T15:29:23.452Z,72.40
2019-02-28T15:31:55.274Z,72.19
2019-02-28T15:34:26.936Z,71.85
2019-02-28T15:36:59.269Z,71.84
2019-02-28T15:39:31.562Z,72.09
2019-02-28T15:42:05.475Z,71.95
2019-02-28T15:44:36.522Z,72.54
2019-02-28T15:47:08.392Z,72.77
2019-02-28T15:49:41.757Z,72.73
2019-02-28T15:52:13.993Z,72.37
2019-02-28T15:54:48.637Z,72.57
2019-02-28T15:57:20.329Z,72.57
2019-02-28T15:59:51.986Z,72.92
2019-02-28T16:02:23.882Z,72.75
2019-02-28T16:04:57.744Z,73.36
2019-02-28T16:07:32.411Z,73.81
2019-02-28T16:10:01.681Z,73.42
2019-02-28T16:12:33.535Z,73.78
2019-02-28T16:15:08.739Z,73.99
2019-02-28T16:17:41.481Z,73.47
2019-02-28T16:20:14.964Z,73.53
2019-02-28T16:22:52.057Z,73.68
2019-02-28T16:25:24.623Z,73.69
2019-02-28T16:27:56.897Z,74.00
2019-02-28T16:30:31.822Z,73.78
2019-02-28T16:33:01.735Z,74.62
2019-02-28T16:35:33.508Z,74.15
2019-02-28T16:38:06.485Z,73.87
2019-02-28T16:40:38.247Z,73.94
2019-02-28T16:43:10.103Z,74.08
2019-02-28T16:45:43.406Z,73.36
2019-02-28T16:48:14.952Z,74.85
2019-02-28T16:50:46.545Z,74.62
2019-02-28T16:53:18.189Z,75.00
2019-02-28T16:55:51.964Z,75.13
2019-02-28T16:58:23.619Z,74.59
2019-02-28T17:00:55.279Z,75.10
2019-02-28T17:03:27.046Z,75.11
2019-02-28T17:06:01.582Z,75.11
2019-02-28T17:08:33.123Z,74.87
2019-02-28T17:11:05.583Z,74.77
2019-02-28T17:13:39.488Z,75.93
2019-02-28T17:16:18.705Z,76.24
2019-02-28T17:18:53.487Z,75.71
2019-02-28T17:21:23.579Z,75.69
2019-02-28T17:23:55.651Z,76.00
2019-02-28T17:26:31.053Z,75.90
2019-02-28T17:29:06.326Z,75.84
2019-02-28T17:31:44.562Z,76.05
2019-02-28T17:34:17.533Z,76.10
2019-02-28T17:36:48.653Z,75.59
2019-02-28T17:39:20.334Z,76.10
2019-02-28T17:41:51.981Z,76.26
2019-02-28T17:44:33.988Z,75.68
2019-02-28T17:47:27.038Z,76.24
2019-02-28T17:50:07.785Z,76.09
2019-02-28T17:52:43.862Z,76.08
2019-02-28T17:55:42.554Z,76.10
2019-02-28T17:58:32.769Z,75.44
2019-02-28T18:01:29.938Z,75.57
2019-02-28T18:04:12.124Z,75.44
2019-02-28T18:07:23.642Z,75.28
2019-02-28T18:10:12.966Z,74.99
2019-02-28T18:13:07.663Z,75.59
2019-02-28T18:15:51.404Z,75.62
2019-02-28T18:18:29.328Z,75.98
2019-02-28T18:21:09.970Z,75.76
2019-02-28T18:24:00.211Z,74.94
2019-02-28T18:26:59.687Z,74.78
2019-02-28T18:29:50.777Z,75.40
2019-02-28T18:32:22.639Z,74.65
2019-02-28T18:34:56.269Z,75.45
2019-02-28T18:37:27.698Z,74.91
2019-02-28T18:39:59.039Z,75.55
2019-02-28T18:42:30.589Z,75.00
2019-02-28T18:45:02.261Z,74.87
2019-02-28T18:47:36.018Z,75.74
2019-02-28T18:50:08.458Z,75.22
2019-02-28T18:52:39.776Z,74.92
2019-02-28T18:55:11.432Z,75.18
2019-02-28T18:57:43.304Z,75.77
2019-02-28T19:00:17.001Z,75.72
2019-02-28T19:02:48.761Z,75.31
2019-02-28T19:05:20.618Z,75.38
2019-02-28T19:07:52.286Z,75.02
2019-02-28T19:10:24.039Z,75.03
2019-02-28T19:12:55.893Z,74.82
2019-02-28T19:15:27.554Z,74.61
2019-02-28T19:17:59.518Z,74.58
2019-02-28T19:20:31.163Z,74.16
2019-02-28T19:23:02.425Z,74.02
2019-02-28T19:25:34.177Z,74.48
2019-02-28T19:28:05.833Z,74.16
2019-02-28T19:30:37.438Z,74.23
2019-02-28T19:33:09.039Z,74.00
2019-02-28T19:35:40.795Z,75.05
2019-02-28T19:38:12.139Z,74.92
2019-02-28T19:40:43.899Z,74.92
2019-02-28T19:43:15.555Z,74.48
2019-02-28T19:45:50.492Z,74.70
2019-02-28T19:48:22.371Z,74.64
2019-02-28T19:50:54.112Z,74.78
2019-02-28T19:53:25.665Z,74.87
2019-02-28T19:55:57.327Z,75.03
2019-02-28T19:58:30.109Z,75.21
2019-02-28T20:01:01.884Z,74.93
2019-02-28T20:03:33.511Z,74.50
2019-02-28T20:06:05.184Z,74.62
2019-02-28T20:08:36.827Z,73.93
2019-02-28T20:11:08.484Z,73.48
2019-02-28T20:13:40.038Z,72.96
2019-02-28T20:16:11.899Z,72.92
2019-02-28T20:18:44.580Z,72.72
2019-02-28T20:21:19.217Z,72.26
2019-02-28T20:23:50.958Z,72.17
2019-02-28T20:26:22.619Z,71.72
2019-02-28T20:28:54.270Z,71.55
2019-02-28T20:31:26.671Z,71.44
2019-02-28T20:33:57.989Z,71.39
2019-02-28T20:36:30.569Z,71.39
2019-02-28T20:39:02.231Z,71.21
2019-02-28T20:41:35.419Z,70.58
2019-02-28T20:44:07.074Z,70.18
2019-02-28T20:46:39.041Z,70.71
2019-02-28T20:49:10.693Z,70.62
2019-02-28T20:51:42.353Z,70.94
2019-02-28T20:54:14.004Z,71.15
2019-02-28T20:56:45.674Z,70.83
2019-02-28T20:59:17.831Z,70.43
2019-02-28T21:01:49.795Z,69.85
2019-02-28T21:04:21.451Z,69.67
2019-02-28T21:06:53.116Z,69.49
2019-02-28T21:09:25.789Z,69.64
2019-02-28T21:11:57.553Z,69.65
2019-02-28T21:14:29.102Z,69.70
2019-02-28T21:17:00.965Z,69.45
2019-02-28T21:19:32.615Z,69.28
2019-02-28T21:22:04.173Z,69.04
2019-02-28T21:24:35.826Z,68.54
2019-02-28T21:27:07.479Z,68.57
2019-02-28T21:29:39.142Z,68.62
2019-02-28T21:32:10.997Z,68.21
2019-02-28T21:34:42.760Z,68.11
2019-02-28T21:37:14.621Z,67.82
2019-02-28T21:39:46.699Z,68.00
2019-02-28T21:42:19.873Z,68.17
2019-02-28T21:44:51.424Z,68.07
2019-02-28T21:47:23.188Z,68.01
2019-02-28T21:49:54.430Z,67.74
2019-02-28T21:52:26.190Z,68.02
2019-02-28T21:54:57.851Z,68.15
2019-02-28T21:57:29.600Z,67.91
2019-02-28T22:00:01.172Z,68.30
2019-02-28T22:02:33.457Z,68.16
2019-02-28T22:05:05.190Z,68.09
2019-02-28T22:07:37.157Z,68.05
2019-02-28T22:10:13.729Z,68.53
2019-02-28T22:12:45.372Z,68.91
2019-02-28T22:15:19.497Z,68.77
2019-02-28T22:17:54.116Z,69.16
2019-02-28T22:20:25.777Z,69.99
2019-02-28T22:22:57.323Z,71.08
2019-02-28T22:25:29.085Z,72.31
2019-02-28T22:28:00.740Z,72.54
2019-02-28T22:30:37.110Z,72.69
2019-02-28T22:33:13.272Z,72.86
2019-02-28T22:36:02.843Z,73.34
2019-02-28T22:38:34.394Z,73.31
2019-02-28T22:41:06.046Z,73.59
2019-02-28T22:43:37.703Z,73.73
2019-02-28T22:46:09.257Z,73.58
2019-02-28T22:48:41.016Z,73.45
2019-02-28T22:51:12.589Z,74.28
2019-02-28T22:53:44.326Z,74.84
2019-02-28T22:56:15.572Z,75.36
2019-02-28T22:58:47.532Z,76.23
2019-02-28T23:01:22.572Z,76.33
2019-02-28T23:03:53.925Z,76.60
2019-02-28T23:06:27.527Z,77.31
2019-02-28T23:08:59.282Z,78.16
2019-02-28T23:11:30.943Z,78.90
2019-02-28T23:14:02.605Z,78.81
2019-02-28T23:16:34.357Z,78.87
2019-02-28T23:19:06.008Z,79.29
2019-02-28T23:21:37.659Z,79.18
2019-02-28T23:24:09.320Z,79.63
2019-02-28T23:27:03.602Z,79.76
2019-02-28T23:29:35.268Z,79.53
2019-02-28T23:32:25.155Z,80.19
2019-02-28T23:34:58.342Z,79.86
2019-02-28T23:37:29.995Z,79.73
2019-02-28T23:40:01.647Z,79.76
2019-02-28T23:42:33.411Z,79.74
2019-02-28T23:45:06.702Z,79.53
2019-02-28T23:47:38.367Z,79.80
2019-02-28T23:50:10.528Z,79.47
2019-02-28T23:52:42.119Z,79.30
2019-02-28T23:55:13.562Z,79.26
2019-02-28T23:57:45.299Z,79.87
